createdAt,value
2022-08-25T00:00:45.093Z,40.28
2022-08-25T00:01:45.086Z,40.61
2022-08-25T00:02:56.455Z,43.67
2022-08-25T00:03:47.068Z,42.22
2022-08-25T00:04:45.096Z,45.44
2022-08-25T00:05:46.116Z,42.86
2022-08-25T00:06:45.054Z,42.70
2022-08-25T00:07:45.038Z,47.05
2022-08-25T00:08:45.027Z,46.73
2022-08-25T00:09:45.058Z,49.79
2022-08-25T00:10:45.010Z,46.57
2022-08-25T00:11:46.009Z,50.60
2022-08-25T00:12:44.996Z,44.79
2022-08-25T00:13:44.987Z,43.34
2022-08-25T00:14:45.010Z,42.86
2022-08-25T00:15:44.998Z,50.60
2022-08-25T00:16:44.970Z,42.54
2022-08-25T00:17:44.955Z,46.08
2022-08-25T00:18:44.951Z,43.83
2022-08-25T00:19:44.968Z,41.73
2022-08-25T00:20:49.189Z,48.82
2022-08-25T00:21:44.923Z,39.96
2022-08-25T00:22:44.920Z,39.80
2022-08-25T00:23:44.908Z,42.22
2022-08-25T00:24:44.930Z,38.19
2022-08-25T00:25:44.883Z,42.38
2022-08-25T00:26:44.880Z,41.73
2022-08-25T00:27:45.870Z,38.51
2022-08-25T00:28:44.890Z,38.03
2022-08-25T00:29:44.884Z,41.41
2022-08-25T00:30:44.868Z,45.60
2022-08-25T00:31:44.871Z,42.86
2022-08-25T00:32:48.882Z,40.61
2022-08-25T00:33:45.942Z,47.86
2022-08-25T00:34:44.850Z,48.66
2022-08-25T00:35:44.809Z,51.72
2022-08-25T00:36:44.799Z,49.31
2022-08-25T00:37:44.792Z,48.18
2022-08-25T00:38:44.782Z,41.09
2022-08-25T00:39:44.826Z,43.83
2022-08-25T00:40:44.776Z,40.28
2022-08-25T00:41:44.755Z,40.77
2022-08-25T00:42:44.754Z,41.57
2022-08-25T00:43:44.750Z,36.90
2022-08-25T00:44:45.108Z,37.71
2022-08-25T00:45:44.727Z,40.44
2022-08-25T00:46:44.721Z,37.87
2022-08-25T00:47:44.709Z,39.64
2022-08-25T00:48:44.703Z,46.08
2022-08-25T00:49:44.730Z,39.16
2022-08-25T00:50:44.685Z,37.54
2022-08-25T00:51:44.682Z,41.57
2022-08-25T00:52:44.671Z,42.38
2022-08-25T00:53:44.656Z,38.19
2022-08-25T00:54:44.654Z,39.32
2022-08-25T00:55:44.662Z,47.86
2022-08-25T00:56:44.634Z,53.01
2022-08-25T00:57:44.627Z,49.63
2022-08-25T00:58:44.616Z,46.25
2022-08-25T00:59:44.648Z,46.08
2022-08-25T01:00:44.599Z,47.53
2022-08-25T01:01:44.627Z,43.18
2022-08-25T01:02:44.757Z,41.41
2022-08-25T01:03:44.569Z,44.47
2022-08-25T01:04:49.136Z,42.54
2022-08-25T01:05:45.549Z,44.47
2022-08-25T01:06:44.553Z,51.56
2022-08-25T01:07:44.645Z,45.28
2022-08-25T01:08:44.532Z,46.89
2022-08-25T01:09:44.553Z,49.95
2022-08-25T01:10:44.513Z,41.41
2022-08-25T01:11:44.520Z,42.38
2022-08-25T01:12:44.501Z,43.99
2022-08-25T01:13:44.503Z,38.03
2022-08-25T01:14:44.519Z,38.67
2022-08-25T01:15:44.533Z,48.98
2022-08-25T01:16:44.477Z,39.96
2022-08-25T01:17:44.465Z,37.54
2022-08-25T01:18:44.443Z,39.96
2022-08-25T01:19:44.471Z,48.02
2022-08-25T01:20:44.434Z,42.54
2022-08-25T01:21:44.430Z,44.15
2022-08-25T01:22:44.425Z,40.93
2022-08-25T01:23:44.407Z,44.31
2022-08-25T01:24:44.441Z,39.48
2022-08-25T01:25:44.394Z,40.93
2022-08-25T01:26:44.390Z,45.92
2022-08-25T01:27:44.375Z,38.35
2022-08-25T01:28:44.367Z,37.87
2022-08-25T01:29:44.391Z,39.96
2022-08-25T01:30:44.400Z,45.44
2022-08-25T01:31:44.340Z,45.60
2022-08-25T01:32:44.335Z,42.86
2022-08-25T01:33:44.339Z,47.21
2022-08-25T01:34:44.363Z,40.44
2022-08-25T01:35:44.309Z,47.05
2022-08-25T01:36:44.311Z,45.28
2022-08-25T01:37:44.293Z,41.89
2022-08-25T01:38:44.291Z,44.47
2022-08-25T01:39:44.357Z,43.99
2022-08-25T01:40:44.271Z,40.28
2022-08-25T01:41:44.259Z,38.83
2022-08-25T01:42:44.250Z,39.96
2022-08-25T01:43:44.246Z,42.22
2022-08-25T01:44:44.264Z,42.70
2022-08-25T01:45:44.261Z,39.32
2022-08-25T01:46:44.218Z,40.61
2022-08-25T01:47:44.210Z,44.96
2022-08-25T01:48:44.196Z,43.51
2022-08-25T01:49:44.227Z,43.34
2022-08-25T01:50:44.198Z,43.18
2022-08-25T01:51:44.176Z,50.27
2022-08-25T01:52:44.184Z,53.17
2022-08-25T01:53:44.168Z,45.28
2022-08-25T01:54:44.187Z,42.86
2022-08-25T01:55:44.156Z,45.44
2022-08-25T01:56:44.140Z,43.18
2022-08-25T01:57:44.140Z,41.73
2022-08-25T01:58:44.120Z,40.28
2022-08-25T01:59:44.152Z,41.57
2022-08-25T02:00:44.107Z,44.15
2022-08-25T02:01:44.128Z,38.83
2022-08-25T02:02:44.138Z,39.96
2022-08-25T02:03:44.081Z,40.77
2022-08-25T02:04:44.537Z,41.89
2022-08-25T02:05:44.065Z,42.70
2022-08-25T02:06:44.058Z,41.89
2022-08-25T02:07:44.055Z,44.31
2022-08-25T02:08:44.059Z,44.79
2022-08-25T02:09:44.065Z,44.63
2022-08-25T02:10:44.032Z,44.47
2022-08-25T02:11:44.029Z,43.67
2022-08-25T02:12:44.003Z,41.41
2022-08-25T02:13:44.007Z,41.41
2022-08-25T02:14:44.011Z,52.21
2022-08-25T02:15:43.987Z,49.15
2022-08-25T02:16:44.044Z,51.88
2022-08-25T02:17:43.965Z,60.59
2022-08-25T02:18:43.957Z,49.63
2022-08-25T02:19:43.990Z,45.92
2022-08-25T02:20:43.945Z,39.32
2022-08-25T02:21:43.931Z,40.44
2022-08-25T02:22:43.919Z,44.79
2022-08-25T02:23:44.911Z,40.77
2022-08-25T02:24:43.953Z,42.06
2022-08-25T02:25:43.899Z,50.92
2022-08-25T02:26:43.895Z,47.05
2022-08-25T02:27:43.887Z,50.27
2022-08-25T02:28:43.872Z,44.47
2022-08-25T02:29:43.870Z,46.08
2022-08-25T02:30:43.973Z,47.21
2022-08-25T02:31:43.871Z,45.12
2022-08-25T02:32:43.848Z,43.99
2022-08-25T02:33:43.835Z,46.89
2022-08-25T02:34:43.830Z,50.11
2022-08-25T02:35:43.862Z,47.70
2022-08-25T02:36:43.808Z,51.72
2022-08-25T02:37:43.805Z,50.11
2022-08-25T02:38:43.792Z,45.12
2022-08-25T02:39:43.797Z,50.76
2022-08-25T02:40:43.801Z,43.99
2022-08-25T02:41:43.775Z,42.38
2022-08-25T02:42:43.763Z,42.22
2022-08-25T02:43:43.757Z,43.34
2022-08-25T02:44:43.742Z,48.50
2022-08-25T02:45:43.810Z,50.92
2022-08-25T02:46:43.762Z,45.92
2022-08-25T02:47:43.724Z,49.95
2022-08-25T02:48:43.712Z,63.81
2022-08-25T02:49:43.704Z,45.76
2022-08-25T02:50:43.733Z,42.38
2022-08-25T02:51:43.694Z,46.73
2022-08-25T02:52:43.681Z,48.18
2022-08-25T02:53:43.672Z,51.88
2022-08-25T02:54:43.666Z,55.43
2022-08-25T02:55:43.687Z,45.44
2022-08-25T02:56:44.218Z,57.36
2022-08-25T02:57:43.639Z,47.37
2022-08-25T02:58:43.640Z,48.18
2022-08-25T02:59:43.623Z,45.92
2022-08-25T03:00:43.711Z,45.12
2022-08-25T03:01:43.613Z,54.62
2022-08-25T03:02:43.606Z,52.69
2022-08-25T03:03:43.802Z,47.21
2022-08-25T03:04:43.636Z,48.98
2022-08-25T03:05:43.610Z,49.79
2022-08-25T03:06:43.567Z,51.08
2022-08-25T03:07:43.561Z,54.79
2022-08-25T03:08:43.555Z,44.31
2022-08-25T03:09:43.547Z,45.76
2022-08-25T03:10:43.571Z,57.36
2022-08-25T03:11:43.529Z,49.63
2022-08-25T03:12:43.522Z,61.07
2022-08-25T03:13:43.522Z,48.82
2022-08-25T03:14:43.507Z,53.50
2022-08-25T03:15:43.532Z,44.15
2022-08-25T03:16:46.437Z,48.34
2022-08-25T03:17:45.687Z,51.40
2022-08-25T03:18:43.493Z,49.15
2022-08-25T03:19:43.464Z,52.53
2022-08-25T03:20:43.487Z,53.01
2022-08-25T03:21:43.445Z,53.66
2022-08-25T03:22:43.439Z,43.99
2022-08-25T03:23:43.437Z,53.50
2022-08-25T03:24:43.418Z,55.91
2022-08-25T03:25:43.459Z,56.88
2022-08-25T03:26:43.412Z,57.20
2022-08-25T03:27:43.400Z,59.14
2022-08-25T03:28:43.405Z,49.79
2022-08-25T03:29:43.385Z,61.39
2022-08-25T03:30:43.414Z,46.41
2022-08-25T03:31:43.407Z,48.50
2022-08-25T03:32:43.358Z,50.27
2022-08-25T03:33:43.355Z,48.02
2022-08-25T03:34:43.337Z,52.69
2022-08-25T03:35:43.361Z,60.75
2022-08-25T03:36:43.322Z,52.85
2022-08-25T03:37:43.313Z,53.17
2022-08-25T03:38:43.311Z,49.47
2022-08-25T03:39:43.290Z,58.97
2022-08-25T03:40:43.315Z,48.34
2022-08-25T03:41:43.279Z,63.97
2022-08-25T03:42:45.017Z,51.24
2022-08-25T03:43:44.265Z,52.85
2022-08-25T03:44:43.256Z,58.65
2022-08-25T03:45:43.328Z,67.51
2022-08-25T03:46:43.235Z,53.82
2022-08-25T03:47:43.225Z,59.30
2022-08-25T03:48:43.227Z,48.66
2022-08-25T03:49:43.215Z,63.65
2022-08-25T03:50:43.237Z,58.97
2022-08-25T03:51:44.197Z,59.94
2022-08-25T03:52:43.222Z,62.36
2022-08-25T03:53:43.181Z,57.20
2022-08-25T03:54:43.169Z,57.36
2022-08-25T03:55:43.158Z,58.97
2022-08-25T03:56:43.184Z,48.98
2022-08-25T03:57:43.149Z,58.65
2022-08-25T03:58:43.133Z,48.98
2022-08-25T03:59:43.130Z,55.27
2022-08-25T04:00:43.168Z,52.37
2022-08-25T04:01:43.208Z,64.29
2022-08-25T04:02:43.145Z,52.85
2022-08-25T04:03:43.103Z,60.75
2022-08-25T04:04:43.092Z,50.43
2022-08-25T04:05:43.080Z,53.50
2022-08-25T04:06:43.109Z,60.26
2022-08-25T04:07:43.061Z,51.08
2022-08-25T04:08:43.059Z,48.50
2022-08-25T04:09:43.067Z,58.01
2022-08-25T04:10:43.048Z,57.04
2022-08-25T04:11:43.063Z,51.88
2022-08-25T04:12:43.019Z,49.79
2022-08-25T04:13:43.009Z,55.75
2022-08-25T04:14:43.003Z,61.39
2022-08-25T04:15:43.005Z,59.62
2022-08-25T04:16:43.062Z,65.58
2022-08-25T04:17:42.991Z,56.56
2022-08-25T04:18:42.990Z,51.88
2022-08-25T04:19:42.966Z,57.52
2022-08-25T04:20:46.583Z,59.94
2022-08-25T04:21:43.977Z,51.56
2022-08-25T04:22:44.840Z,59.62
2022-08-25T04:23:43.926Z,64.94
2022-08-25T04:24:42.921Z,56.24
2022-08-25T04:25:42.922Z,50.92
2022-08-25T04:26:42.938Z,52.37
2022-08-25T04:27:42.936Z,49.79
2022-08-25T04:28:42.892Z,62.68
2022-08-25T04:29:42.885Z,57.36
2022-08-25T04:30:42.879Z,57.36
2022-08-25T04:31:42.934Z,56.40
2022-08-25T04:32:42.870Z,52.53
2022-08-25T04:33:42.847Z,53.17
2022-08-25T04:34:42.841Z,62.68
2022-08-25T04:35:42.832Z,66.55
2022-08-25T04:36:42.854Z,53.98
2022-08-25T04:37:42.809Z,55.11
2022-08-25T04:38:42.806Z,55.43
2022-08-25T04:39:42.792Z,68.16
2022-08-25T04:40:42.783Z,53.66
2022-08-25T04:41:42.807Z,54.62
2022-08-25T04:42:42.769Z,61.23
2022-08-25T04:43:42.763Z,58.49
2022-08-25T04:44:42.755Z,62.84
2022-08-25T04:45:42.810Z,54.62
2022-08-25T04:46:42.771Z,63.33
2022-08-25T04:47:42.731Z,63.81
2022-08-25T04:48:42.723Z,64.61
2022-08-25T04:49:42.720Z,62.68
2022-08-25T04:50:42.703Z,56.40
2022-08-25T04:51:42.730Z,56.72
2022-08-25T04:52:42.694Z,63.49
2022-08-25T04:53:42.686Z,57.20
2022-08-25T04:54:42.689Z,51.88
2022-08-25T04:55:42.661Z,56.40
2022-08-25T04:56:42.711Z,67.84
2022-08-25T04:57:42.648Z,48.18
2022-08-25T04:58:42.637Z,56.56
2022-08-25T04:59:42.637Z,63.49
2022-08-25T05:00:42.657Z,64.29
2022-08-25T05:01:42.643Z,57.85
2022-08-25T05:02:42.603Z,51.88
2022-08-25T05:03:42.602Z,62.04
2022-08-25T05:04:42.667Z,65.74
2022-08-25T05:05:42.583Z,59.78
2022-08-25T05:06:42.605Z,59.46
2022-08-25T05:07:42.561Z,59.94
2022-08-25T05:08:42.561Z,65.58
2022-08-25T05:09:42.552Z,59.14
2022-08-25T05:10:42.554Z,56.40
2022-08-25T05:11:42.569Z,59.78
2022-08-25T05:12:42.532Z,56.72
2022-08-25T05:13:42.519Z,63.81
2022-08-25T05:14:42.517Z,57.04
2022-08-25T05:15:42.498Z,53.66
2022-08-25T05:16:42.564Z,64.61
2022-08-25T05:17:42.469Z,61.71
2022-08-25T05:18:43.479Z,53.50
2022-08-25T05:19:42.469Z,55.43
2022-08-25T05:20:42.454Z,64.78
2022-08-25T05:21:42.455Z,57.36
2022-08-25T05:22:42.473Z,55.27
2022-08-25T05:23:42.434Z,57.20
2022-08-25T05:24:42.427Z,57.52
2022-08-25T05:25:42.418Z,63.33
2022-08-25T05:26:42.409Z,60.26
2022-08-25T05:27:42.429Z,58.49
2022-08-25T05:28:42.404Z,63.00
2022-08-25T05:29:42.384Z,61.39
2022-08-25T05:30:42.382Z,57.04
2022-08-25T05:31:45.912Z,54.79
2022-08-25T05:32:44.391Z,61.23
2022-08-25T05:33:42.358Z,63.49
2022-08-25T05:34:42.345Z,54.95
2022-08-25T05:35:42.334Z,55.91
2022-08-25T05:36:42.331Z,60.75
2022-08-25T05:37:42.355Z,60.75
2022-08-25T05:38:42.325Z,52.05
2022-08-25T05:39:42.303Z,56.07
2022-08-25T05:40:42.299Z,64.29
2022-08-25T05:41:42.295Z,54.95
2022-08-25T05:42:42.306Z,64.61
2022-08-25T05:43:42.269Z,60.10
2022-08-25T05:44:42.264Z,55.75
2022-08-25T05:45:42.310Z,55.43
2022-08-25T05:46:42.242Z,63.65
2022-08-25T05:47:42.271Z,58.81
2022-08-25T05:48:42.231Z,57.69
2022-08-25T05:49:42.227Z,60.91
2022-08-25T05:50:42.218Z,60.26
2022-08-25T05:51:42.217Z,60.42
2022-08-25T05:52:42.262Z,62.20
2022-08-25T05:53:42.208Z,56.56
2022-08-25T05:54:42.190Z,64.61
2022-08-25T05:55:42.184Z,48.02
2022-08-25T05:56:42.173Z,53.66
2022-08-25T05:57:42.238Z,61.71
2022-08-25T05:58:42.205Z,63.81
2022-08-25T05:59:42.171Z,56.07
2022-08-25T06:00:42.169Z,58.49
2022-08-25T06:01:43.448Z,57.04
2022-08-25T06:02:42.175Z,48.50
2022-08-25T06:03:42.141Z,51.40
2022-08-25T06:04:42.109Z,63.97
2022-08-25T06:05:42.100Z,56.88
2022-08-25T06:06:42.105Z,58.17
2022-08-25T06:07:42.118Z,52.53
2022-08-25T06:08:42.076Z,53.17
2022-08-25T06:09:42.064Z,49.15
2022-08-25T06:10:42.063Z,52.85
2022-08-25T06:11:42.049Z,60.59
2022-08-25T06:12:42.070Z,60.59
2022-08-25T06:13:42.034Z,48.98
2022-08-25T06:14:42.047Z,56.88
2022-08-25T06:15:42.015Z,62.20
2022-08-25T06:16:42.061Z,59.46
2022-08-25T06:17:42.040Z,57.52
2022-08-25T06:18:41.998Z,53.98
2022-08-25T06:19:41.998Z,48.82
2022-08-25T06:20:41.985Z,54.14
2022-08-25T06:21:41.972Z,54.30
2022-08-25T06:22:42.017Z,65.58
2022-08-25T06:23:41.962Z,65.58
2022-08-25T06:24:41.948Z,62.84
2022-08-25T06:25:41.941Z,52.05
2022-08-25T06:26:41.989Z,58.33
2022-08-25T06:27:41.948Z,54.46
2022-08-25T06:28:41.909Z,48.02
2022-08-25T06:29:41.995Z,52.69
2022-08-25T06:30:41.906Z,52.21
2022-08-25T06:31:41.914Z,56.56
2022-08-25T06:32:41.918Z,59.94
2022-08-25T06:33:41.873Z,57.20
2022-08-25T06:34:41.862Z,62.20
2022-08-25T06:35:41.856Z,52.53
2022-08-25T06:36:41.853Z,51.72
2022-08-25T06:37:41.875Z,48.82
2022-08-25T06:38:41.838Z,54.14
2022-08-25T06:39:41.823Z,49.95
2022-08-25T06:40:41.816Z,50.60
2022-08-25T06:41:41.806Z,62.04
2022-08-25T06:42:41.834Z,47.21
2022-08-25T06:43:47.969Z,55.59
2022-08-25T06:44:43.785Z,55.59
2022-08-25T06:45:41.777Z,65.42
2022-08-25T06:46:41.799Z,52.05
2022-08-25T06:47:41.796Z,46.25
2022-08-25T06:48:41.757Z,58.81
2022-08-25T06:49:41.746Z,50.60
2022-08-25T06:50:41.739Z,49.31
2022-08-25T06:51:41.735Z,52.37
2022-08-25T06:52:41.751Z,51.72
2022-08-25T06:53:41.713Z,53.98
2022-08-25T06:54:41.709Z,60.59
2022-08-25T06:55:41.706Z,51.72
2022-08-25T06:56:41.693Z,51.08
2022-08-25T06:57:41.711Z,59.62
2022-08-25T06:58:41.682Z,56.56
2022-08-25T06:59:41.729Z,52.69
2022-08-25T07:00:41.706Z,52.21
2022-08-25T07:01:41.710Z,56.56
2022-08-25T07:02:41.721Z,51.88
2022-08-25T07:03:41.659Z,47.70
2022-08-25T07:04:41.620Z,62.20
2022-08-25T07:05:43.728Z,58.17
2022-08-25T07:06:42.603Z,52.69
2022-08-25T07:07:43.875Z,51.40
2022-08-25T07:08:41.627Z,56.07
2022-08-25T07:09:41.578Z,52.53
2022-08-25T07:10:41.611Z,49.31
2022-08-25T07:11:42.568Z,58.49
2022-08-25T07:12:41.611Z,51.56
2022-08-25T07:13:41.550Z,66.23
2022-08-25T07:14:44.257Z,52.05
2022-08-25T07:15:42.536Z,54.62
2022-08-25T07:16:41.873Z,50.27
2022-08-25T07:17:41.566Z,47.53
2022-08-25T07:18:41.520Z,50.43
2022-08-25T07:19:41.526Z,49.79
2022-08-25T07:20:41.498Z,48.02
2022-08-25T07:21:41.499Z,56.72
2022-08-25T07:22:41.530Z,53.01
2022-08-25T07:23:41.488Z,47.05
2022-08-25T07:24:41.477Z,55.59
2022-08-25T07:25:41.463Z,47.21
2022-08-25T07:26:41.457Z,61.23
2022-08-25T07:27:42.411Z,46.57
2022-08-25T07:28:47.202Z,60.26
2022-08-25T07:29:42.711Z,56.72
2022-08-25T07:30:41.429Z,54.62
2022-08-25T07:31:41.642Z,56.88
2022-08-25T07:32:42.204Z,53.33
2022-08-25T07:33:41.411Z,45.12
2022-08-25T07:34:41.389Z,60.59
2022-08-25T07:35:43.810Z,54.79
2022-08-25T07:36:41.382Z,52.37
2022-08-25T07:37:49.799Z,53.17
2022-08-25T07:38:43.365Z,63.97
2022-08-25T07:39:41.372Z,57.36
2022-08-25T07:40:42.716Z,53.17
2022-08-25T07:41:41.354Z,63.33
2022-08-25T07:42:41.338Z,57.04
2022-08-25T07:43:41.370Z,53.17
2022-08-25T07:44:41.323Z,51.72
2022-08-25T07:45:49.037Z,60.42
2022-08-25T07:46:42.529Z,52.69
2022-08-25T07:47:41.297Z,63.81
2022-08-25T07:48:41.326Z,60.59
2022-08-25T07:49:41.285Z,54.62
2022-08-25T07:50:41.295Z,61.71
2022-08-25T07:51:55.196Z,52.21
2022-08-25T07:52:42.271Z,54.30
2022-08-25T07:53:41.286Z,56.72
2022-08-25T07:54:41.255Z,56.24
2022-08-25T07:55:41.239Z,61.71
2022-08-25T07:56:41.248Z,59.30
2022-08-25T07:57:41.386Z,59.78
2022-08-25T07:58:41.406Z,54.14
2022-08-25T07:59:41.322Z,57.36
2022-08-25T08:00:42.362Z,56.07
2022-08-25T08:01:41.243Z,60.42
2022-08-25T08:02:41.238Z,56.24
2022-08-25T08:03:50.892Z,55.91
2022-08-25T08:04:43.199Z,61.71
2022-08-25T08:05:41.167Z,53.17
2022-08-25T08:06:41.163Z,61.71
2022-08-25T08:07:43.613Z,58.81
2022-08-25T08:08:41.168Z,53.66
2022-08-25T08:09:41.135Z,52.21
2022-08-25T08:11:03.146Z,57.36
2022-08-25T08:11:51.472Z,49.15
2022-08-25T08:12:43.149Z,45.28
2022-08-25T08:13:41.570Z,55.59
2022-08-25T08:14:45.128Z,61.23
2022-08-25T08:15:41.129Z,62.36
2022-08-25T08:16:41.098Z,59.78
2022-08-25T08:17:41.117Z,55.43
2022-08-25T08:18:41.098Z,51.56
2022-08-25T08:19:44.923Z,52.53
2022-08-25T08:20:43.000Z,56.56
2022-08-25T08:21:41.061Z,51.40
2022-08-25T08:22:41.104Z,59.78
2022-08-25T08:23:41.074Z,44.96
2022-08-25T08:24:44.749Z,52.21
2022-08-25T08:25:43.024Z,48.98
2022-08-25T08:26:57.468Z,57.36
2022-08-25T08:27:43.044Z,58.97
2022-08-25T08:28:41.031Z,55.75
2022-08-25T08:29:41.018Z,51.24
2022-08-25T08:30:40.996Z,49.95
2022-08-25T08:31:42.069Z,54.62
2022-08-25T08:33:06.270Z,47.86
2022-08-25T08:33:42.977Z,50.92
2022-08-25T08:34:40.967Z,55.91
2022-08-25T08:35:41.168Z,58.17
2022-08-25T08:36:40.959Z,61.23
2022-08-25T08:37:40.982Z,53.17
2022-08-25T08:38:40.943Z,53.98
2022-08-25T08:39:40.938Z,56.72
2022-08-25T08:40:40.924Z,51.72
2022-08-25T08:42:07.654Z,53.66
2022-08-25T08:42:42.959Z,59.30
2022-08-25T08:43:40.904Z,55.91
2022-08-25T08:44:40.911Z,60.42
2022-08-25T08:45:44.144Z,56.88
2022-08-25T08:46:40.949Z,54.46
2022-08-25T08:47:40.907Z,56.56
2022-08-25T08:48:40.874Z,59.78
2022-08-25T08:49:40.857Z,53.98
2022-08-25T08:50:40.853Z,56.07
2022-08-25T08:51:40.847Z,54.46
2022-08-25T08:52:40.876Z,49.47
2022-08-25T08:53:40.833Z,57.36
2022-08-25T08:54:41.245Z,54.62
2022-08-25T08:55:40.823Z,62.52
2022-08-25T08:56:43.599Z,45.92
2022-08-25T08:57:41.883Z,49.63
2022-08-25T08:58:41.666Z,57.36
2022-08-25T08:59:40.803Z,56.72
2022-08-25T09:00:40.785Z,58.49
2022-08-25T09:01:40.824Z,56.07
2022-08-25T09:02:51.997Z,58.97
2022-08-25T09:03:41.830Z,52.85
2022-08-25T09:04:40.758Z,50.43
2022-08-25T09:05:44.961Z,59.14
2022-08-25T09:06:42.751Z,57.69
2022-08-25T09:07:41.277Z,50.60
2022-08-25T09:08:44.595Z,54.95
2022-08-25T09:09:40.730Z,53.33
2022-08-25T09:10:40.726Z,49.63
2022-08-25T09:11:40.723Z,45.28
2022-08-25T09:12:40.793Z,48.82
2022-08-25T09:13:40.709Z,49.95
2022-08-25T09:14:40.691Z,55.91
2022-08-25T09:15:41.091Z,57.20
2022-08-25T09:16:40.737Z,60.42
2022-08-25T09:17:40.697Z,55.59
2022-08-25T09:18:41.272Z,55.43
2022-08-25T09:19:42.646Z,59.30
2022-08-25T09:20:40.646Z,53.50
2022-08-25T09:21:40.643Z,58.01
2022-08-25T09:22:40.639Z,54.14
2022-08-25T09:23:40.656Z,57.20
2022-08-25T09:24:40.651Z,56.24
2022-08-25T09:25:53.346Z,62.36
2022-08-25T09:26:42.607Z,54.46
2022-08-25T09:27:40.634Z,60.42
2022-08-25T09:28:40.588Z,51.56
2022-08-25T09:29:40.583Z,48.50
2022-08-25T09:30:40.577Z,62.52
2022-08-25T09:31:40.590Z,56.88
2022-08-25T09:32:40.610Z,56.56
2022-08-25T09:33:40.547Z,52.37
2022-08-25T09:34:40.551Z,52.37
2022-08-25T09:35:40.536Z,63.49
2022-08-25T09:36:40.531Z,48.82
2022-08-25T09:37:40.554Z,49.15
2022-08-25T09:38:40.510Z,57.36
2022-08-25T09:39:40.507Z,60.26
2022-08-25T09:40:40.500Z,62.84
2022-08-25T09:41:40.489Z,56.88
2022-08-25T09:42:40.509Z,58.01
2022-08-25T09:43:40.475Z,54.62
2022-08-25T09:44:40.458Z,55.91
2022-08-25T09:45:42.334Z,52.21
2022-08-25T09:46:40.509Z,62.84
2022-08-25T09:47:40.484Z,54.95
2022-08-25T09:48:40.729Z,59.46
2022-08-25T09:49:40.433Z,48.82
2022-08-25T09:50:45.220Z,52.69
2022-08-25T09:51:43.308Z,54.95
2022-08-25T09:52:41.400Z,62.04
2022-08-25T09:53:40.410Z,59.62
2022-08-25T09:54:44.023Z,59.14
2022-08-25T09:55:40.380Z,43.34
2022-08-25T09:56:40.400Z,52.05
2022-08-25T09:57:40.416Z,53.82
2022-08-25T09:58:40.367Z,60.75
2022-08-25T09:59:40.358Z,54.95
2022-08-25T10:00:41.348Z,47.53
2022-08-25T10:01:40.372Z,59.62
2022-08-25T10:02:40.383Z,60.75
2022-08-25T10:03:40.332Z,59.62
2022-08-25T10:04:40.466Z,55.59
2022-08-25T10:05:40.321Z,55.91
2022-08-25T10:06:40.318Z,60.10
2022-08-25T10:07:40.309Z,60.26
2022-08-25T10:08:40.338Z,57.20
2022-08-25T10:09:40.299Z,53.50
2022-08-25T10:10:42.061Z,62.36
2022-08-25T10:11:40.285Z,55.91
2022-08-25T10:12:42.839Z,52.37
2022-08-25T10:13:40.304Z,60.10
2022-08-25T10:14:44.382Z,60.75
2022-08-25T10:15:40.310Z,56.88
2022-08-25T10:16:40.301Z,57.69
2022-08-25T10:17:40.235Z,59.46
2022-08-25T10:18:41.278Z,57.85
2022-08-25T10:19:40.234Z,60.75
2022-08-25T10:20:42.217Z,62.20
2022-08-25T10:21:40.231Z,49.47
2022-08-25T10:22:40.222Z,54.30
2022-08-25T10:23:40.233Z,60.26
2022-08-25T10:24:40.954Z,55.27
2022-08-25T10:25:40.262Z,58.49
2022-08-25T10:26:40.207Z,59.30
2022-08-25T10:27:40.183Z,51.72
2022-08-25T10:28:40.205Z,57.04
2022-08-25T10:29:40.889Z,57.36
2022-08-25T10:30:40.190Z,62.04
2022-08-25T10:31:41.353Z,52.53
2022-08-25T10:32:40.152Z,55.75
2022-08-25T10:33:40.170Z,62.36
2022-08-25T10:34:40.135Z,62.36
2022-08-25T10:35:40.127Z,53.66
2022-08-25T10:36:40.121Z,50.43
2022-08-25T10:37:40.120Z,52.85
2022-08-25T10:38:43.157Z,56.40
2022-08-25T10:39:41.111Z,47.86
2022-08-25T10:40:40.189Z,53.50
2022-08-25T10:41:40.092Z,51.56
2022-08-25T10:42:40.080Z,47.21
2022-08-25T10:43:40.110Z,58.33
2022-08-25T10:44:40.073Z,54.62
2022-08-25T10:45:40.064Z,60.91
2022-08-25T10:46:40.131Z,64.45
2022-08-25T10:47:40.047Z,58.01
2022-08-25T10:48:40.068Z,50.92
2022-08-25T10:49:40.036Z,56.24
2022-08-25T10:50:40.035Z,51.72
2022-08-25T10:51:41.024Z,61.23
2022-08-25T10:52:40.018Z,56.07
2022-08-25T10:53:40.040Z,55.91
2022-08-25T10:54:41.001Z,61.87
2022-08-25T10:55:40.266Z,53.66
2022-08-25T10:56:40.754Z,54.46
2022-08-25T10:57:39.986Z,54.95
2022-08-25T10:58:40.012Z,60.59
2022-08-25T10:59:39.960Z,54.79
2022-08-25T11:00:40.962Z,55.11
2022-08-25T11:01:44.097Z,58.97
2022-08-25T11:02:41.435Z,56.07
2022-08-25T11:03:39.969Z,56.72
2022-08-25T11:04:39.959Z,55.59
2022-08-25T11:05:40.016Z,56.40
2022-08-25T11:06:39.916Z,58.65
2022-08-25T11:07:39.912Z,47.05
2022-08-25T11:08:39.947Z,55.91
2022-08-25T11:09:40.158Z,53.66
2022-08-25T11:10:39.881Z,58.65
2022-08-25T11:11:39.887Z,55.59
2022-08-25T11:12:39.899Z,50.76
2022-08-25T11:13:39.906Z,57.20
2022-08-25T11:14:39.854Z,56.40
2022-08-25T11:15:54.554Z,61.87
2022-08-25T11:16:41.865Z,49.95
2022-08-25T11:17:39.839Z,55.59
2022-08-25T11:18:39.866Z,61.71
2022-08-25T11:19:39.828Z,56.07
2022-08-25T11:20:39.811Z,58.81
2022-08-25T11:21:39.818Z,61.71
2022-08-25T11:22:39.812Z,60.75
2022-08-25T11:23:39.795Z,63.16
2022-08-25T11:24:39.814Z,57.36
2022-08-25T11:25:39.782Z,56.56
2022-08-25T11:26:40.546Z,62.52
2022-08-25T11:27:39.770Z,60.91
2022-08-25T11:28:39.801Z,53.01
2022-08-25T11:29:39.762Z,57.04
2022-08-25T11:30:40.213Z,60.59
2022-08-25T11:31:39.745Z,61.71
2022-08-25T11:32:39.739Z,53.17
2022-08-25T11:33:39.758Z,54.95
2022-08-25T11:34:40.120Z,61.71
2022-08-25T11:35:39.723Z,60.59
2022-08-25T11:36:39.733Z,53.01
2022-08-25T11:37:39.701Z,54.95
2022-08-25T11:38:39.695Z,62.84
2022-08-25T11:39:40.291Z,57.20
2022-08-25T11:40:39.699Z,65.26
2022-08-25T11:41:39.671Z,62.84
2022-08-25T11:42:39.666Z,57.85
2022-08-25T11:43:40.552Z,61.71
2022-08-25T11:44:39.690Z,59.78
2022-08-25T11:45:40.709Z,47.05
2022-08-25T11:46:39.763Z,60.75
2022-08-25T11:47:39.639Z,61.87
2022-08-25T11:48:39.645Z,46.73
2022-08-25T11:49:39.654Z,51.72
2022-08-25T11:50:39.605Z,53.98
2022-08-25T11:51:40.608Z,54.46
2022-08-25T11:52:39.608Z,61.07
2022-08-25T11:53:42.198Z,53.50
2022-08-25T11:54:39.610Z,53.82
2022-08-25T11:55:39.590Z,55.75
2022-08-25T11:56:40.091Z,56.07
2022-08-25T11:57:39.566Z,62.68
2022-08-25T11:58:40.644Z,48.66
2022-08-25T11:59:39.619Z,48.50
2022-08-25T12:00:39.546Z,62.52
2022-08-25T12:01:40.251Z,60.26
2022-08-25T12:02:39.531Z,47.86
2022-08-25T12:03:39.534Z,60.59
2022-08-25T12:04:45.223Z,49.47
2022-08-25T12:05:40.552Z,60.91
2022-08-25T12:06:39.513Z,53.17
2022-08-25T12:07:39.504Z,50.43
2022-08-25T12:08:39.491Z,52.53
2022-08-25T12:09:39.522Z,64.13
2022-08-25T12:10:39.502Z,50.27
2022-08-25T12:11:39.475Z,51.24
2022-08-25T12:12:39.462Z,53.50
2022-08-25T12:13:39.466Z,60.59
2022-08-25T12:14:39.482Z,52.69
2022-08-25T12:15:39.449Z,55.75
2022-08-25T12:16:39.468Z,54.62
2022-08-25T12:17:39.633Z,55.59
2022-08-25T12:18:39.427Z,56.07
2022-08-25T12:19:40.462Z,61.07
2022-08-25T12:20:39.418Z,61.87
2022-08-25T12:21:39.411Z,56.88
2022-08-25T12:22:39.401Z,51.24
2022-08-25T12:23:43.025Z,53.01
2022-08-25T12:24:40.427Z,48.18
2022-08-25T12:25:40.373Z,51.08
2022-08-25T12:26:39.379Z,62.68
2022-08-25T12:27:39.387Z,58.65
2022-08-25T12:28:39.355Z,53.17
2022-08-25T12:29:39.367Z,48.18
2022-08-25T12:30:40.407Z,53.82
2022-08-25T12:31:39.333Z,62.20
2022-08-25T12:32:39.340Z,62.36
2022-08-25T12:33:39.322Z,51.72
2022-08-25T12:34:39.352Z,58.81
2022-08-25T12:35:39.319Z,64.29
2022-08-25T12:36:39.300Z,63.00
2022-08-25T12:37:39.309Z,65.90
2022-08-25T12:38:43.176Z,56.72
2022-08-25T12:39:40.316Z,56.40
2022-08-25T12:40:39.273Z,57.85
2022-08-25T12:41:39.265Z,64.13
2022-08-25T12:42:39.260Z,53.50
2022-08-25T12:43:39.252Z,51.40
2022-08-25T12:44:39.302Z,59.94
2022-08-25T12:45:39.319Z,60.75
2022-08-25T12:46:39.229Z,64.61
2022-08-25T12:47:43.010Z,61.55
2022-08-25T12:48:41.229Z,48.98
2022-08-25T12:49:39.212Z,45.28
2022-08-25T12:50:39.239Z,63.81
2022-08-25T12:51:39.197Z,60.42
2022-08-25T12:52:39.189Z,60.26